Aérodrome :
LOGIN :

S'inscrire | Disclaimer

   EN    FR    IT 

 










Légende :    VFR   VFR Marginal   IFR   IFR Intensif   IFR Très Intensif
Visi : 
Plafond : 
>= 8 km
>= 3000ft
5 à 8 km
1000 à 3000 ft
1500m à 5 km
500 à 1000 ft
800 à 1500m
200 à 500 ft
< 800m
< 200 ft
Symboles :   Orages  Brouillard  Fortes neiges  Fortes précipitations  Vent > 20 kt
SIGMETs :   Divers  Orages  Givrage  Turbulence  Onde Orograph.  Cendres Volcan.







- Altitude de l'aérodrome : 14 ft
- Code IATA : BRE


EDDW - Bremen Neuenland

DERNIER METAR :
  • 251450Z 07005KT 9999 FEW018 FEW035CB SCT280 17/13 Q1021 TEMPO 4000 TSRA BKN012

METARs EXPIRÉS :
  • 251420Z 05007KT 9999 FEW035 SCT280 17/13 Q1021 NOSIG
  • 251350Z 04005KT 9999 SCT020 SCT280 18/13 Q1022 NOSIG
  • 251320Z 07003KT 360V120 9999 FEW016 SCT280 18/14 Q1022 NOSIG
  • 251250Z 06005KT 020V090 9999 FEW014 BKN035 17/14 Q1022 NOSIG
  • 251220Z 07006KT 9999 FEW014 BKN035 16/13 Q1022 NOSIG
  • 251150Z 07007KT 9999 SCT013 BKN025 16/14 Q1022 NOSIG

TAF TAF EDDW
Valide du 25 à 12h jusqu'au 26 à 12h UTC


251100Z 2512/2612 07007KT 9999 SCT020
PROB30
TEMPO 2513/2518 4500 SHRA BKN012CB
BECMG 2521/2523 BKN007
TEMPO 2603/2607 4000 BR
BECMG 2607/2609 BKN010
BECMG 2609/2611 SCT020
Pas de NOTAMs connus pour ce terrain.



MET'MAP, la Météo Aéronautique d'un coup d'oeil ! - Copyright ORBIFLY Décembre 2007 - Disclaimer

ORBIFLY MET'MAP TEAM :

Programmation & Développement : Alexandra Zaïnal
Conception & Développement : Baudouin d'Aumeries
Co-Programmation & Développement : Marc-Olivier Méhu
Soutien technique & logistique : Manuel Goepfert

Contact : metmap@orbifly.com




SOURCES & CREDITS :

   NOAA